Time;durP1;ratioP1;P1;durP2;ratioP2;P2;SDS_P1;SDS_P2;PMS_P1;PMS_P2;Temp;Humidity;BMP_temperature;BMP_pressure;BME280_temperature;BME280_humidity;BME280_pressure;Samples;Min_cycle;Max_cycle;Signal;HPM_P1;HPM_P2
2024/01/15 00:01:59;;;;;;;63.72;22.77;;;3.30;99.90;;;;;;5035204;28;20044;-70
2024/01/15 00:04:25;;;;;;;65.88;23.40;;;3.30;99.90;;;;;;5035347;28;20025;-70
2024/01/15 00:06:51;;;;;;;63.67;23.55;;;3.30;99.90;;;;;;5035558;28;20035;-70
2024/01/15 00:09:16;;;;;;;61.58;24.20;;;3.20;99.90;;;;;;5039035;28;20428;-70
2024/01/15 00:11:42;;;;;;;61.03;25.48;;;3.20;99.90;;;;;;5033222;28;20025;-70
2024/01/15 00:14:08;;;;;;;60.05;24.15;;;3.20;99.90;;;;;;5038662;28;20394;-70
2024/01/15 00:16:34;;;;;;;62.75;22.90;;;3.20;99.90;;;;;;5038053;28;20021;-69
2024/01/15 00:19:00;;;;;;;62.67;24.38;;;3.20;99.90;;;;;;5035366;28;20445;-70
2024/01/15 00:21:25;;;;;;;63.63;26.10;;;3.30;99.90;;;;;;5035348;28;20543;-71
2024/01/15 00:23:51;;;;;;;60.97;25.00;;;3.30;99.90;;;;;;5034101;28;20041;-71
2024/01/15 00:26:17;;;;;;;63.38;25.60;;;3.30;99.90;;;;;;5035298;28;20601;-70
2024/01/15 00:28:42;;;;;;;64.50;26.45;;;3.30;99.90;;;;;;5034996;28;20462;-71
2024/01/15 00:31:08;;;;;;;67.50;25.08;;;3.30;99.90;;;;;;5038785;28;20121;-70
2024/01/15 00:33:34;;;;;;;63.35;25.83;;;3.30;99.90;;;;;;5032345;28;20080;-70
2024/01/15 00:35:59;;;;;;;66.75;25.95;;;3.30;99.90;;;;;;5034231;28;20021;-70
2024/01/15 00:38:25;;;;;;;65.57;24.92;;;3.40;99.90;;;;;;5032615;28;20045;-70
2024/01/15 00:40:51;;;;;;;72.72;27.83;;;3.30;99.90;;;;;;5033795;28;20017;-70
2024/01/15 00:43:18;;;;;;;75.10;28.23;;;3.30;99.90;;;;;;5036118;28;20072;-70
2024/01/15 00:45:44;;;;;;;68.63;28.33;;;3.20;99.90;;;;;;5035629;28;20804;-70
2024/01/15 00:48:10;;;;;;;70.78;28.40;;;3.20;99.90;;;;;;5035884;28;20029;-70
2024/01/15 00:50:36;;;;;;;83.60;29.50;;;3.20;99.90;;;;;;5032841;28;20025;-70
2024/01/15 00:53:01;;;;;;;78.80;31.02;;;3.10;99.90;;;;;;5038304;28;20017;-70
2024/01/15 00:55:29;;;;;;;77.45;27.55;;;3.20;99.90;;;;;;5034852;28;20028;-70
2024/01/15 00:57:54;;;;;;;69.05;27.77;;;3.20;99.90;;;;;;5031502;28;20118;-71
2024/01/15 01:00:20;;;;;;;70.38;30.10;;;3.10;99.90;;;;;;5035888;28;20478;-71
2024/01/15 01:02:46;;;;;;;66.30;27.67;;;3.20;99.90;;;;;;5037361;28;20036;-71
2024/01/15 01:05:12;;;;;;;65.13;24.92;;;3.10;99.90;;;;;;5032377;28;20025;-70
2024/01/15 01:07:38;;;;;;;62.88;27.70;;;3.20;99.90;;;;;;5035978;28;20052;-70
2024/01/15 01:10:04;;;;;;;65.05;26.33;;;3.10;99.90;;;;;;5031879;28;20016;-70
2024/01/15 01:12:30;;;;;;;60.55;25.70;;;3.10;99.90;;;;;;5031870;28;20091;-71
2024/01/15 01:14:56;;;;;;;57.30;24.05;;;3.10;99.90;;;;;;5033409;28;20425;-71
2024/01/15 01:17:22;;;;;;;58.85;24.08;;;3.10;99.90;;;;;;5036156;28;20039;-71
2024/01/15 01:19:48;;;;;;;56.25;24.15;;;3.10;99.90;;;;;;5034553;28;20021;-71
2024/01/15 01:22:13;;;;;;;58.65;26.15;;;3.20;99.90;;;;;;5032060;28;20091;-70
2024/01/15 01:24:39;;;;;;;58.78;24.85;;;3.20;99.90;;;;;;5035946;28;20019;-70
2024/01/15 01:27:04;;;;;;;62.20;25.50;;;3.20;99.90;;;;;;5031058;28;20746;-70
2024/01/15 01:29:30;;;;;;;57.13;25.60;;;3.20;99.90;;;;;;5036039;28;20390;-70
2024/01/15 01:31:56;;;;;;;56.25;25.50;;;3.10;99.90;;;;;;5032916;28;20033;-70
2024/01/15 01:34:22;;;;;;;67.13;25.95;;;3.10;99.90;;;;;;5032737;28;20029;-70
2024/01/15 01:36:47;;;;;;;59.97;28.38;;;3.20;99.90;;;;;;5035986;28;20064;-71
2024/01/15 01:39:13;;;;;;;60.75;27.48;;;3.20;99.90;;;;;;5032128;28;20024;-71
2024/01/15 01:41:40;;;;;;;62.38;27.75;;;3.10;99.90;;;;;;5037326;28;20118;-71
2024/01/15 01:44:07;;;;;;;56.63;26.45;;;3.20;99.90;;;;;;5033855;28;20378;-70
2024/01/15 01:46:33;;;;;;;59.72;26.48;;;3.20;99.90;;;;;;5036138;28;20029;-71
2024/01/15 01:49:05;;;;;;;50.58;23.35;;;3.20;99.90;;;;;;5035993;28;20028;-71
2024/01/15 01:51:31;;;;;;;54.28;24.13;;;3.20;99.90;;;;;;5035056;28;20021;-71
2024/01/15 01:53:57;;;;;;;51.22;24.13;;;3.10;99.90;;;;;;5032229;28;20112;-71
2024/01/15 01:56:24;;;;;;;47.20;21.85;;;3.20;99.90;;;;;;5033602;28;22727;-70
2024/01/15 01:58:50;;;;;;;45.10;21.55;;;3.20;99.90;;;;;;5031899;28;20029;-71
2024/01/15 02:01:16;;;;;;;53.97;23.20;;;3.20;99.90;;;;;;5032961;28;20827;-70
2024/01/15 02:03:42;;;;;;;57.35;23.88;;;3.30;99.90;;;;;;5030682;28;20373;-71
2024/01/15 02:06:08;;;;;;;51.13;22.15;;;3.30;99.90;;;;;;5031233;28;20052;-71
2024/01/15 02:08:34;;;;;;;48.72;23.23;;;3.20;99.90;;;;;;5034429;28;20025;-70
2024/01/15 02:11:00;;;;;;;41.97;20.23;;;3.30;99.90;;;;;;5034954;28;20170;-70
2024/01/15 02:13:26;;;;;;;42.33;20.88;;;3.20;99.90;;;;;;5036075;28;20108;-71
2024/01/15 02:15:52;;;;;;;40.08;18.40;;;3.30;99.90;;;;;;5031284;28;20498;-71
2024/01/15 02:18:17;;;;;;;40.00;17.10;;;3.20;99.90;;;;;;5029612;28;20021;-71
2024/01/15 02:20:44;;;;;;;31.05;15.30;;;3.30;99.90;;;;;;5029452;28;20390;-71
2024/01/15 02:23:14;;;;;;;29.85;14.07;;;3.30;99.90;;;;;;5030297;28;20402;-70
2024/01/15 02:25:41;;;;;;;28.48;12.38;;;3.30;99.90;;;;;;5033711;28;20013;-71
2024/01/15 02:28:12;;;;;;;25.75;11.32;;;3.30;99.90;;;;;;5035683;28;20516;-70
2024/01/15 02:30:39;;;;;;;32.58;11.60;;;3.40;99.90;;;;;;5034808;28;20033;-70
2024/01/15 02:33:05;;;;;;;25.13;11.90;;;3.30;99.90;;;;;;5030364;28;20017;-70
2024/01/15 02:35:31;;;;;;;27.08;13.15;;;3.40;99.90;;;;;;5034306;28;20029;-71
2024/01/15 02:37:56;;;;;;;31.80;14.30;;;3.30;99.90;;;;;;5031795;28;20052;-71
2024/01/15 02:40:22;;;;;;;38.92;16.17;;;3.30;99.90;;;;;;5032548;28;20113;-71
2024/01/15 02:42:48;;;;;;;41.90;17.92;;;3.40;99.90;;;;;;5033841;28;20028;-70
2024/01/15 02:45:14;;;;;;;36.20;17.73;;;3.40;99.90;;;;;;5029787;28;20029;-71
2024/01/15 02:47:39;;;;;;;39.88;19.25;;;3.30;99.90;;;;;;5032514;28;20037;-71
2024/01/15 02:50:06;;;;;;;48.10;19.00;;;3.40;99.90;;;;;;5030543;28;20036;-71
2024/01/15 02:52:32;;;;;;;39.55;19.27;;;3.40;99.90;;;;;;5031630;28;20033;-71
2024/01/15 02:54:57;;;;;;;46.15;19.85;;;3.30;99.90;;;;;;5031442;28;20047;-71
2024/01/15 02:57:23;;;;;;;45.38;19.83;;;3.30;99.90;;;;;;5031636;28;20029;-71
2024/01/15 02:59:49;;;;;;;47.40;19.88;;;3.30;99.90;;;;;;5032019;28;20087;-70
2024/01/15 03:02:15;;;;;;;45.78;21.05;;;3.30;99.90;;;;;;5037061;28;20389;-70
2024/01/15 03:04:44;;;;;;;40.47;18.85;;;3.30;99.90;;;;;;5041266;28;20594;-70
2024/01/15 03:07:10;;;;;;;52.75;20.88;;;3.30;99.90;;;;;;5050657;28;20517;-70
2024/01/15 03:09:36;;;;;;;37.13;17.75;;;3.20;99.90;;;;;;5038346;28;20481;-70
2024/01/15 03:12:02;;;;;;;36.20;16.73;;;3.20;99.90;;;;;;5040204;28;20296;-70
2024/01/15 03:14:27;;;;;;;42.10;16.45;;;3.20;99.90;;;;;;5040025;28;20096;-70
2024/01/15 03:16:53;;;;;;;32.00;15.65;;;3.20;99.90;;;;;;5033825;28;20025;-70
2024/01/15 03:19:19;;;;;;;35.58;15.10;;;3.20;99.90;;;;;;5035532;28;20096;-70
2024/01/15 03:21:45;;;;;;;33.95;15.25;;;3.20;99.90;;;;;;5032852;28;20038;-70
2024/01/15 03:24:11;;;;;;;33.72;15.70;;;3.20;99.90;;;;;;5033770;28;20526;-70
2024/01/15 03:26:36;;;;;;;39.65;17.30;;;3.10;99.90;;;;;;5035443;28;20389;-69
2024/01/15 03:29:02;;;;;;;30.58;15.07;;;3.10;99.90;;;;;;5037076;28;20063;-70
2024/01/15 03:31:28;;;;;;;37.67;15.70;;;3.10;99.90;;;;;;5037359;28;20489;-70
2024/01/15 03:33:53;;;;;;;33.08;14.13;;;3.10;99.90;;;;;;5040338;28;20040;-69
2024/01/15 03:36:19;;;;;;;35.13;15.02;;;3.10;99.90;;;;;;5036062;28;20017;-69
2024/01/15 03:38:45;;;;;;;33.92;16.08;;;3.10;99.90;;;;;;5035451;28;20390;-69
2024/01/15 03:41:11;;;;;;;33.20;14.00;;;3.10;99.90;;;;;;5034959;28;20021;-69
2024/01/15 03:43:36;;;;;;;27.80;14.30;;;3.20;99.90;;;;;;5036118;28;20390;-70
2024/01/15 03:46:02;;;;;;;28.70;13.32;;;3.20;99.90;;;;;;5036570;28;20025;-70
2024/01/15 03:48:28;;;;;;;28.83;12.38;;;3.30;99.90;;;;;;5035970;28;20025;-70
2024/01/15 03:50:54;;;;;;;25.58;12.23;;;3.30;99.90;;;;;;5036175;28;20049;-69
2024/01/15 03:53:19;;;;;;;24.80;10.23;;;3.30;99.90;;;;;;5035106;28;20064;-69
2024/01/15 03:55:45;;;;;;;22.80;10.43;;;3.30;99.90;;;;;;5034008;28;20501;-70
2024/01/15 03:58:11;;;;;;;21.13;10.70;;;3.20;99.90;;;;;;5038054;28;20075;-69
2024/01/15 04:00:37;;;;;;;20.88;9.77;;;3.20;99.90;;;;;;5032831;28;20402;-70
2024/01/15 04:03:02;;;;;;;15.73;8.45;;;3.20;99.90;;;;;;5036644;28;20056;-70
2024/01/15 04:05:28;;;;;;;23.75;9.27;;;3.20;99.90;;;;;;5032200;28;20109;-70
2024/01/15 04:07:54;;;;;;;25.30;9.02;;;3.30;99.90;;;;;;5036998;28;20108;-69
2024/01/15 04:10:19;;;;;;;23.77;10.43;;;3.20;99.90;;;;;;5036107;28;20096;-69
2024/01/15 04:12:46;;;;;;;25.13;11.68;;;3.30;99.90;;;;;;5036879;28;20056;-70
2024/01/15 04:15:12;;;;;;;23.15;11.80;;;3.20;99.90;;;;;;5033219;28;20099;-70
2024/01/15 04:17:38;;;;;;;27.02;12.77;;;3.20;99.90;;;;;;5036772;28;20090;-70
2024/01/15 04:20:04;;;;;;;27.90;13.43;;;3.20;99.90;;;;;;5038476;28;20046;-69
2024/01/15 04:22:30;;;;;;;30.90;14.38;;;3.20;99.90;;;;;;5034066;28;20037;-69
2024/01/15 04:24:56;;;;;;;30.02;15.43;;;3.10;99.90;;;;;;5034640;28;20030;-70
2024/01/15 04:27:22;;;;;;;29.30;14.82;;;3.30;99.90;;;;;;5038431;28;20022;-70
2024/01/15 04:29:47;;;;;;;26.40;14.30;;;3.20;99.90;;;;;;5035708;28;20032;-70
2024/01/15 04:32:13;;;;;;;28.90;14.50;;;3.30;99.90;;;;;;5034882;28;20029;-69
2024/01/15 04:34:39;;;;;;;33.25;15.15;;;3.30;99.90;;;;;;5033231;28;20045;-69
2024/01/15 04:37:04;;;;;;;24.77;14.73;;;3.30;99.90;;;;;;5037749;28;20115;-69
2024/01/15 04:39:30;;;;;;;37.03;15.05;;;3.40;99.90;;;;;;5032919;28;20052;-70
2024/01/15 04:41:56;;;;;;;26.92;14.50;;;3.40;99.90;;;;;;5032335;28;20108;-70
2024/01/15 04:44:22;;;;;;;29.67;13.32;;;3.40;99.90;;;;;;5033833;28;20120;-70
2024/01/15 04:46:48;;;;;;;26.40;13.73;;;3.50;99.90;;;;;;5038190;28;20018;-69
2024/01/15 04:49:13;;;;;;;27.08;13.80;;;3.50;99.90;;;;;;5035272;28;20039;-70
2024/01/15 04:51:39;;;;;;;29.15;14.40;;;3.50;99.90;;;;;;5034487;28;20034;-70
2024/01/15 04:54:05;;;;;;;28.55;14.52;;;3.60;99.90;;;;;;5034429;28;20356;-70
2024/01/15 04:56:30;;;;;;;30.20;14.52;;;3.60;99.90;;;;;;5038203;28;20492;-70
2024/01/15 04:58:56;;;;;;;35.72;16.40;;;3.60;99.90;;;;;;5033615;28;20028;-70
2024/01/15 05:01:22;;;;;;;35.53;15.70;;;3.50;99.90;;;;;;5033623;28;20407;-70
2024/01/15 05:03:48;;;;;;;37.75;16.40;;;3.50;99.90;;;;;;5036331;28;20757;-69
2024/01/15 05:06:14;;;;;;;27.63;15.52;;;3.50;99.90;;;;;;5034940;28;20486;-70
2024/01/15 05:08:40;;;;;;;33.25;16.85;;;3.50;99.90;;;;;;5035524;28;20351;-70
2024/01/15 05:11:05;;;;;;;38.60;17.58;;;3.40;99.90;;;;;;5035071;28;20025;-70
2024/01/15 05:13:31;;;;;;;39.33;17.35;;;3.40;99.90;;;;;;5034308;28;20478;-70
2024/01/15 05:15:57;;;;;;;34.47;16.85;;;3.40;99.90;;;;;;5031907;28;20494;-70
2024/01/15 05:18:22;;;;;;;33.92;17.40;;;3.40;99.90;;;;;;5034438;28;20017;-69
2024/01/15 05:20:48;;;;;;;33.30;16.60;;;3.40;99.90;;;;;;5036424;28;20035;-70
2024/01/15 05:23:14;;;;;;;41.28;16.70;;;3.40;99.90;;;;;;5032884;28;20116;-69
2024/01/15 05:25:40;;;;;;;31.25;16.25;;;3.40;99.90;;;;;;5034553;28;20025;-70
2024/01/15 05:28:05;;;;;;;38.17;17.10;;;3.40;99.90;;;;;;5035632;28;20480;-70
2024/01/15 05:30:31;;;;;;;28.63;15.90;;;3.40;99.90;;;;;;5030357;28;20026;-69
2024/01/15 05:32:57;;;;;;;37.72;18.42;;;3.50;99.90;;;;;;5033828;28;20059;-69
2024/01/15 05:35:23;;;;;;;35.25;15.73;;;3.50;99.90;;;;;;5032913;28;20441;-69
2024/01/15 05:37:49;;;;;;;40.08;20.42;;;3.50;99.90;;;;;;5033144;28;20029;-69
2024/01/15 05:40:14;;;;;;;35.17;16.90;;;3.50;99.90;;;;;;5036120;28;20025;-69
2024/01/15 05:42:41;;;;;;;37.28;17.40;;;3.50;99.90;;;;;;5037300;28;20034;-69
2024/01/15 05:45:07;;;;;;;38.47;17.58;;;3.50;99.90;;;;;;5036309;28;20037;-68
2024/01/15 05:47:33;;;;;;;36.60;15.88;;;3.40;99.90;;;;;;5033447;28;20167;-69
2024/01/15 05:50:01;;;;;;;32.97;17.50;;;3.30;99.90;;;;;;5033098;28;20100;-69
2024/01/15 05:52:26;;;;;;;24.95;15.45;;;3.30;99.90;;;;;;5036267;28;20139;-68
2024/01/15 05:54:52;;;;;;;32.17;17.38;;;3.30;99.90;;;;;;5034490;28;20108;-69
2024/01/15 05:57:18;;;;;;;36.88;17.92;;;3.20;99.90;;;;;;5032065;28;20487;-69
2024/01/15 05:59:44;;;;;;;33.17;17.20;;;3.20;99.90;;;;;;5036782;28;20497;-69
2024/01/15 06:02:11;;;;;;;29.95;15.20;;;3.20;99.90;;;;;;5035317;28;20037;-69
2024/01/15 06:04:37;;;;;;;24.92;14.95;;;3.20;99.90;;;;;;5035235;28;20116;-69
2024/01/15 06:07:03;;;;;;;30.48;13.95;;;3.30;99.90;;;;;;5033642;28;20029;-68
2024/01/15 06:09:28;;;;;;;27.10;13.50;;;3.40;99.90;;;;;;5037882;28;20394;-69
2024/01/15 06:11:55;;;;;;;26.17;14.18;;;3.30;99.90;;;;;;5033672;28;20056;-69
2024/01/15 06:14:20;;;;;;;25.35;12.73;;;3.30;99.90;;;;;;5036510;28;20505;-69
2024/01/15 06:16:46;;;;;;;26.33;13.48;;;3.30;99.90;;;;;;5034461;28;20025;-69
2024/01/15 06:19:12;;;;;;;29.45;13.95;;;3.30;99.90;;;;;;5030694;28;20113;-69
2024/01/15 06:21:38;;;;;;;26.80;12.93;;;3.20;99.90;;;;;;5031600;28;20042;-69
2024/01/15 06:24:04;;;;;;;25.52;12.90;;;3.20;99.90;;;;;;5032166;28;20037;-69
2024/01/15 06:26:29;;;;;;;28.05;14.95;;;3.30;99.90;;;;;;5034328;28;20096;-69
2024/01/15 06:28:55;;;;;;;32.40;15.00;;;3.30;99.90;;;;;;5034673;28;20374;-68
2024/01/15 06:31:21;;;;;;;32.63;13.82;;;3.30;99.90;;;;;;5033458;28;20132;-69
2024/01/15 06:33:48;;;;;;;29.17;14.45;;;3.20;99.90;;;;;;5029069;28;20116;-69
2024/01/15 06:36:16;;;;;;;28.20;13.73;;;3.20;99.90;;;;;;5035137;28;20024;-69
2024/01/15 06:38:43;;;;;;;24.98;13.70;;;3.20;99.90;;;;;;5040262;28;20025;-70
2024/01/15 06:41:08;;;;;;;25.23;13.63;;;3.10;99.90;;;;;;5037361;28;20152;-69
2024/01/15 06:43:34;;;;;;;26.45;13.20;;;3.00;99.90;;;;;;5037861;28;20112;-69
2024/01/15 06:46:00;;;;;;;29.20;15.35;;;3.10;99.90;;;;;;5038331;28;20474;-69
2024/01/15 06:48:25;;;;;;;27.38;13.57;;;3.10;99.90;;;;;;5038881;28;20025;-70
2024/01/15 06:50:51;;;;;;;23.02;13.25;;;3.10;99.90;;;;;;5036236;28;20025;-69
2024/01/15 06:53:17;;;;;;;23.92;13.07;;;3.00;99.90;;;;;;5034871;28;20496;-69
2024/01/15 06:55:42;;;;;;;22.98;12.02;;;3.10;99.90;;;;;;5034849;28;20446;-69
2024/01/15 06:58:08;;;;;;;23.17;13.27;;;3.10;99.90;;;;;;5037453;28;20041;-69
2024/01/15 07:00:34;;;;;;;19.02;11.10;;;3.10;99.90;;;;;;5034686;28;20021;-69
2024/01/15 07:03:00;;;;;;;21.90;10.95;;;3.10;99.90;;;;;;5033978;28;20037;-70
2024/01/15 07:05:25;;;;;;;19.92;10.90;;;3.10;99.90;;;;;;5037573;28;20036;-69
2024/01/15 07:07:51;;;;;;;17.02;10.40;;;3.10;99.90;;;;;;5039786;28;20021;-69
2024/01/15 07:10:17;;;;;;;20.73;11.70;;;3.00;99.90;;;;;;5037967;28;20020;-69
2024/01/15 07:12:43;;;;;;;16.13;10.18;;;3.10;99.90;;;;;;5033584;28;20035;-69
2024/01/15 07:15:10;;;;;;;15.90;10.75;;;3.10;99.90;;;;;;5039460;28;20386;-69
2024/01/15 07:17:39;;;;;;;20.63;10.63;;;3.10;99.90;;;;;;5038804;28;20443;-69
2024/01/15 07:20:07;;;;;;;22.90;9.93;;;3.20;99.90;;;;;;5034912;28;20041;-69
2024/01/15 07:22:35;;;;;;;19.55;10.77;;;3.00;99.90;;;;;;5037005;28;20037;-69
2024/01/15 07:25:01;;;;;;;23.05;11.38;;;3.00;99.90;;;;;;5038826;28;20053;-69
2024/01/15 07:27:27;;;;;;;20.77;11.93;;;3.00;99.90;;;;;;5034815;28;20407;-69
2024/01/15 07:29:52;;;;;;;22.73;12.38;;;3.00;99.90;;;;;;5036456;28;20483;-69
2024/01/15 07:32:18;;;;;;;23.35;13.13;;;3.00;99.90;;;;;;5036690;28;20031;-69
2024/01/15 07:34:44;;;;;;;20.02;12.02;;;3.00;99.90;;;;;;5038136;28;20029;-69
2024/01/15 07:37:09;;;;;;;21.38;12.55;;;3.00;99.90;;;;;;5036935;28;20063;-69
2024/01/15 07:39:35;;;;;;;24.33;13.70;;;3.00;99.90;;;;;;5036854;28;20028;-69
2024/01/15 07:42:01;;;;;;;20.50;12.35;;;3.00;99.90;;;;;;5034355;28;20037;-70
2024/01/15 07:44:27;;;;;;;17.25;9.55;;;3.10;99.90;;;;;;5034580;28;20490;-69
2024/01/15 07:46:53;;;;;;;12.13;7.60;;;3.00;99.90;;;;;;5033592;28;20033;-69
2024/01/15 07:49:18;;;;;;;16.77;8.60;;;3.10;99.90;;;;;;5036598;28;20029;-69
2024/01/15 07:51:44;;;;;;;9.65;6.60;;;3.10;99.90;;;;;;5037665;28;20389;-69
2024/01/15 07:54:11;;;;;;;13.05;6.18;;;3.10;99.90;;;;;;5035720;28;20025;-70
2024/01/15 07:56:57;;;;;;;9.50;6.07;;;3.10;99.90;;;;;;5036170;28;20025;-70
2024/01/15 07:59:23;;;;;;;8.73;5.22;;;3.10;99.90;;;;;;5040863;28;20021;-70
2024/01/15 08:01:48;;;;;;;8.45;5.70;;;3.00;99.90;;;;;;5035146;28;20035;-69
2024/01/15 08:04:14;;;;;;;7.25;5.28;;;3.10;99.90;;;;;;5033275;28;20109;-69
2024/01/15 08:06:40;;;;;;;6.47;4.72;;;3.10;99.90;;;;;;5035899;28;20029;-70
2024/01/15 08:09:06;;;;;;;10.07;4.70;;;3.10;99.90;;;;;;5035665;28;20068;-70
2024/01/15 08:11:32;;;;;;;9.35;4.57;;;3.10;99.90;;;;;;5039063;28;20386;-69
2024/01/15 08:13:57;;;;;;;8.02;4.60;;;3.10;99.90;;;;;;5035462;28;20026;-69
2024/01/15 08:16:25;;;;;;;6.50;4.35;;;3.10;99.90;;;;;;5033086;28;20021;-69
2024/01/15 08:18:50;;;;;;;10.90;4.25;;;3.10;99.90;;;;;;5033594;28;20021;-69
2024/01/15 08:21:16;;;;;;;9.45;4.00;;;3.10;99.90;;;;;;5034382;28;20029;-71
2024/01/15 08:23:42;;;;;;;8.15;4.18;;;3.10;99.90;;;;;;5033057;28;20111;-69
2024/01/15 08:26:08;;;;;;;9.40;4.22;;;3.10;99.90;;;;;;5035441;28;20373;-69
2024/01/15 08:28:34;;;;;;;9.70;4.43;;;3.10;99.90;;;;;;5036146;28;20477;-69
2024/01/15 08:31:00;;;;;;;10.75;4.63;;;3.10;99.90;;;;;;5034689;28;20056;-70
2024/01/15 08:33:26;;;;;;;10.07;5.68;;;3.20;99.90;;;;;;5036557;28;20030;-70
2024/01/15 08:35:51;;;;;;;12.93;6.20;;;3.20;99.90;;;;;;5031617;28;20035;-70
2024/01/15 08:38:19;;;;;;;11.70;5.82;;;3.20;99.90;;;;;;5033161;28;20027;-69
2024/01/15 08:40:45;;;;;;;12.60;6.13;;;3.10;99.90;;;;;;5034924;28;20044;-69
2024/01/15 08:43:11;;;;;;;10.27;6.00;;;3.20;99.90;;;;;;5034269;28;20045;-69
2024/01/15 08:45:37;;;;;;;11.07;6.28;;;3.20;99.90;;;;;;5035937;28;20138;-70
2024/01/15 08:48:03;;;;;;;9.68;6.75;;;3.30;99.90;;;;;;5034361;28;20063;-70
2024/01/15 08:50:29;;;;;;;13.93;7.15;;;3.30;99.90;;;;;;5034106;28;20025;-77
2024/01/15 08:52:55;;;;;;;8.18;4.40;;;3.30;99.90;;;;;;5032993;28;20057;-70
2024/01/15 08:55:22;;;;;;;7.45;4.32;;;3.10;99.90;;;;;;5037883;28;20021;-70
2024/01/15 08:57:48;;;;;;;8.82;3.67;;;3.10;99.90;;;;;;5033506;28;20068;-71
2024/01/15 09:00:15;;;;;;;5.22;3.10;;;3.10;99.90;;;;;;5030183;28;20391;-70
2024/01/15 09:02:40;;;;;;;4.30;2.65;;;3.20;99.90;;;;;;5037442;28;20096;-70
2024/01/15 09:05:06;;;;;;;9.15;2.80;;;3.20;99.90;;;;;;5036838;28;20457;-71
2024/01/15 09:07:32;;;;;;;4.00;3.00;;;3.30;99.90;;;;;;5035657;28;20029;-70
2024/01/15 09:09:59;;;;;;;9.80;3.08;;;3.30;99.90;;;;;;5036619;28;20025;-71
2024/01/15 09:12:26;;;;;;;7.95;3.22;;;3.30;99.90;;;;;;5030494;28;20075;-70
2024/01/15 09:14:53;;;;;;;8.27;3.13;;;3.40;99.90;;;;;;5033315;28;20035;-71
2024/01/15 09:17:19;;;;;;;6.07;3.63;;;3.40;99.90;;;;;;5034582;28;20025;-71
2024/01/15 09:19:45;;;;;;;6.47;3.80;;;3.40;99.90;;;;;;5036681;28;20028;-71
2024/01/15 09:22:14;;;;;;;6.25;3.70;;;3.30;99.90;;;;;;5032390;28;20029;-70
2024/01/15 09:24:42;;;;;;;8.77;4.60;;;3.40;99.90;;;;;;5034195;28;20021;-70
2024/01/15 09:27:08;;;;;;;9.40;5.60;;;3.30;99.90;;;;;;5034058;28;20615;-71
2024/01/15 09:29:36;;;;;;;9.18;5.28;;;3.40;99.90;;;;;;5032509;28;20025;-70
2024/01/15 09:32:03;;;;;;;9.93;5.55;;;3.50;99.90;;;;;;5029348;28;20036;-70
2024/01/15 09:34:29;;;;;;;10.13;5.45;;;3.50;99.90;;;;;;5033467;28;20854;-71
2024/01/15 09:36:55;;;;;;;9.20;5.65;;;3.60;99.90;;;;;;5034290;28;20112;-71
2024/01/15 09:39:23;;;;;;;8.90;5.90;;;3.60;99.90;;;;;;5034054;28;20779;-69
2024/01/15 09:41:50;;;;;;;8.30;5.80;;;3.70;99.90;;;;;;5033050;28;20028;-71
2024/01/15 09:44:16;;;;;;;10.85;6.22;;;3.70;99.90;;;;;;5033649;28;20029;-70
2024/01/15 09:46:44;;;;;;;13.57;6.07;;;3.70;99.90;;;;;;5035676;28;20025;-71
2024/01/15 09:49:10;;;;;;;9.13;5.65;;;3.60;99.90;;;;;;5028490;28;20116;-71
2024/01/15 09:51:37;;;;;;;10.30;6.07;;;3.60;99.90;;;;;;5036150;28;20481;-71
2024/01/15 09:54:03;;;;;;;13.07;6.75;;;3.60;99.90;;;;;;5033169;28;20359;-72
2024/01/15 09:56:31;;;;;;;10.52;5.72;;;3.50;99.90;;;;;;5033546;28;20096;-70
2024/01/15 09:58:57;;;;;;;13.10;7.20;;;3.40;99.90;;;;;;5035184;28;20044;-70
2024/01/15 10:01:24;;;;;;;14.77;7.70;;;3.50;99.90;;;;;;5033759;28;20017;-71
2024/01/15 10:03:50;;;;;;;18.10;9.52;;;3.40;99.90;;;;;;5038710;28;20033;-71
2024/01/15 10:06:17;;;;;;;17.92;9.50;;;3.40;99.90;;;;;;5032249;28;20507;-71
2024/01/15 10:08:48;;;;;;;19.30;9.98;;;3.40;99.90;;;;;;5035697;28;20028;-71
2024/01/15 10:11:14;;;;;;;17.30;9.93;;;3.50;99.90;;;;;;5041859;28;20017;-71
2024/01/15 10:13:40;;;;;;;22.52;11.52;;;3.60;99.90;;;;;;5042932;28;20036;-71
2024/01/15 10:16:06;;;;;;;20.83;10.85;;;3.70;99.90;;;;;;5041745;28;20039;-72
2024/01/15 10:18:32;;;;;;;21.70;10.15;;;3.70;99.90;;;;;;5040541;28;20025;-70
2024/01/15 10:20:58;;;;;;;20.45;10.45;;;3.70;99.90;;;;;;5041780;28;20033;-71
2024/01/15 10:23:24;;;;;;;26.20;12.15;;;3.80;99.90;;;;;;5043711;28;20037;-70
2024/01/15 10:25:53;;;;;;;20.23;11.20;;;3.70;99.90;;;;;;5040458;28;20025;-71
2024/01/15 10:28:19;;;;;;;23.00;12.25;;;3.70;99.90;;;;;;5038579;28;20124;-71
2024/01/15 10:30:45;;;;;;;23.77;12.57;;;3.70;99.90;;;;;;5037378;28;20025;-70
2024/01/15 10:33:11;;;;;;;23.65;12.30;;;3.70;99.90;;;;;;5041566;28;20037;-70
2024/01/15 10:35:38;;;;;;;27.27;12.40;;;3.80;99.90;;;;;;5042558;28;20120;-70
2024/01/15 10:38:05;;;;;;;24.45;13.73;;;3.60;99.90;;;;;;5037506;28;20021;-70
2024/01/15 10:40:32;;;;;;;23.65;12.07;;;3.70;99.90;;;;;;5039294;28;20029;-69
2024/01/15 10:42:58;;;;;;;25.27;12.27;;;3.70;99.90;;;;;;5038183;28;20048;-70
2024/01/15 10:45:24;;;;;;;21.60;11.07;;;3.80;99.90;;;;;;5039719;28;20025;-70
2024/01/15 10:47:50;;;;;;;24.05;11.43;;;3.80;99.90;;;;;;5039919;28;20547;-70
2024/01/15 10:50:16;;;;;;;25.63;9.95;;;3.70;99.90;;;;;;5041018;28;20053;-70
2024/01/15 10:52:43;;;;;;;19.17;7.65;;;3.60;99.90;;;;;;5038268;28;20100;-70
2024/01/15 10:55:09;;;;;;;11.77;6.10;;;3.40;99.90;;;;;;5041149;28;20044;-72
2024/01/15 10:57:37;;;;;;;11.77;6.22;;;3.40;99.90;;;;;;5042243;28;20017;-71
2024/01/15 11:00:05;;;;;;;12.52;5.95;;;3.50;99.90;;;;;;5037710;28;20026;-71
2024/01/15 11:02:36;;;;;;;14.68;6.68;;;3.40;99.90;;;;;;5036786;28;20074;-72
2024/01/15 11:05:03;;;;;;;15.48;7.18;;;3.40;99.90;;;;;;5038200;28;20017;-72
2024/01/15 11:07:30;;;;;;;16.17;6.80;;;3.50;99.90;;;;;;5038479;28;20052;-71
2024/01/15 11:09:58;;;;;;;11.07;5.10;;;3.50;99.90;;;;;;5041500;28;20025;-71
2024/01/15 11:12:24;;;;;;;8.68;4.53;;;3.60;99.90;;;;;;5041015;28;20029;-71
2024/01/15 11:14:50;;;;;;;8.88;3.45;;;3.50;99.90;;;;;;5037099;28;20028;-72
2024/01/15 11:17:17;;;;;;;8.75;3.30;;;3.50;99.90;;;;;;5036949;28;20033;-71
2024/01/15 11:19:45;;;;;;;4.43;2.80;;;3.60;99.90;;;;;;5040198;28;20031;-71
2024/01/15 11:22:34;;;;;;;10.13;2.72;;;3.70;99.90;;;;;;5034897;28;20029;-70
2024/01/15 11:25:12;;;;;;;4.65;1.80;;;3.60;99.90;;;;;;5039145;28;20025;-70
2024/01/15 11:27:42;;;;;;;5.43;2.13;;;3.60;99.90;;;;;;5040152;28;20056;-71
2024/01/15 11:30:10;;;;;;;5.47;2.20;;;3.50;99.90;;;;;;5036195;28;20092;-72
2024/01/15 11:32:36;;;;;;;4.70;1.92;;;3.50;99.90;;;;;;5037481;28;20043;-71
2024/01/15 11:35:02;;;;;;;4.10;1.60;;;3.50;99.90;;;;;;5040414;28;20482;-71
2024/01/15 11:37:50;;;;;;;3.22;1.40;;;3.50;99.90;;;;;;5038692;28;20029;-71
2024/01/15 11:40:19;;;;;;;5.70;2.13;;;3.50;99.90;;;;;;5035464;28;20037;-70
2024/01/15 11:42:45;;;;;;;5.13;1.65;;;3.50;99.90;;;;;;5038854;28;20414;-71
2024/01/15 11:45:11;;;;;;;4.57;1.67;;;3.60;99.90;;;;;;5036732;28;20052;-70
2024/01/15 11:47:49;;;;;;;5.95;2.50;;;3.60;99.90;;;;;;5038060;28;20032;-71
2024/01/15 11:50:14;;;;;;;5.18;2.45;;;3.70;99.90;;;;;;5037268;28;20496;-72
2024/01/15 11:52:51;;;;;;;5.28;2.10;;;3.60;99.90;;;;;;5037620;28;20099;-71
2024/01/15 11:55:29;;;;;;;3.30;1.70;;;3.70;99.90;;;;;;5038463;28;20132;-72
2024/01/15 11:57:57;;;;;;;5.82;1.50;;;3.70;99.90;;;;;;5036414;28;20067;-71
2024/01/15 12:00:23;;;;;;;4.43;1.70;;;3.60;99.90;;;;;;5033524;28;20025;-71
2024/01/15 12:02:53;;;;;;;2.83;1.17;;;3.70;99.90;;;;;;5030563;28;20113;-71
2024/01/15 12:05:20;;;;;;;1.80;1.40;;;3.80;99.90;;;;;;5037799;28;20064;-72
2024/01/15 12:07:47;;;;;;;4.93;1.77;;;3.90;99.90;;;;;;5035524;28;20078;-72
2024/01/15 12:10:18;;;;;;;4.25;2.05;;;3.90;99.90;;;;;;5029625;28;20466;-72
2024/01/15 12:13:05;;;;;;;4.63;2.30;;;3.80;99.90;;;;;;5036461;28;20021;-72
2024/01/15 12:15:31;;;;;;;4.72;2.22;;;3.70;99.90;;;;;;5036973;28;20024;-72
2024/01/15 12:18:00;;;;;;;3.15;1.80;;;3.70;99.90;;;;;;5035358;28;20470;-72
2024/01/15 12:20:26;;;;;;;3.05;1.98;;;3.70;99.90;;;;;;5031553;28;20500;-72
2024/01/15 12:22:52;;;;;;;3.22;2.05;;;3.60;99.90;;;;;;5036661;28;20446;-72
2024/01/15 12:25:18;;;;;;;5.28;2.90;;;3.50;99.90;;;;;;5035596;28;20025;-72
2024/01/15 12:27:44;;;;;;;4.90;2.78;;;3.40;99.90;;;;;;5033024;28;20390;-72
2024/01/15 12:30:13;;;;;;;4.25;2.83;;;3.30;99.90;;;;;;5034946;28;20418;-72
2024/01/15 12:32:42;;;;;;;5.70;3.13;;;3.30;99.90;;;;;;5031842;28;20033;-72
2024/01/15 12:35:10;;;;;;;4.50;3.10;;;3.40;99.90;;;;;;5035330;28;20107;-72
2024/01/15 12:37:36;;;;;;;3.47;3.03;;;3.50;99.90;;;;;;5037087;28;20165;-72
2024/01/15 12:40:07;;;;;;;4.45;3.00;;;3.40;99.90;;;;;;5034777;28;20489;-72